createdAt,value
2018-11-14T00:00:28.269Z,8.70
2018-11-14T00:02:58.283Z,8.70
2018-11-14T00:05:27.809Z,8.80
2018-11-14T00:07:57.108Z,8.70
2018-11-14T00:10:26.310Z,8.70
2018-11-14T00:12:55.509Z,8.70
2018-11-14T00:15:25.889Z,8.70
2018-11-14T00:17:55.132Z,8.70
2018-11-14T00:20:24.249Z,8.60
2018-11-14T00:22:54.065Z,8.70
2018-11-14T00:25:23.190Z,8.60
2018-11-14T00:27:52.322Z,8.60
2018-11-14T00:30:22.987Z,8.60
2018-11-14T00:32:52.722Z,8.60
2018-11-14T00:35:21.921Z,8.60
2018-11-14T00:37:51.721Z,8.60
2018-11-14T00:40:21.968Z,8.50
2018-11-14T00:42:51.349Z,8.40
2018-11-14T00:45:22.155Z,8.40
2018-11-14T00:47:51.923Z,8.40
2018-11-14T00:50:21.509Z,8.40
2018-11-14T00:52:50.882Z,8.50
2018-11-14T00:55:21.251Z,8.50
2018-11-14T00:57:51.807Z,8.50
2018-11-14T01:00:25.161Z,8.50
2018-11-14T01:02:55.074Z,8.50
2018-11-14T01:05:24.240Z,8.50
2018-11-14T01:07:53.389Z,8.50
2018-11-14T01:10:23.255Z,8.40
2018-11-14T01:12:52.564Z,8.50
2018-11-14T01:15:23.017Z,8.50
2018-11-14T01:17:52.440Z,8.50
2018-11-14T01:20:22.421Z,8.50
2018-11-14T01:22:51.641Z,8.50
2018-11-14T01:25:21.349Z,8.50
2018-11-14T01:27:50.575Z,8.50
2018-11-14T01:30:23.333Z,8.50
2018-11-14T01:32:53.256Z,8.40
2018-11-14T01:35:22.651Z,8.40
2018-11-14T01:37:52.007Z,8.40
2018-11-14T01:40:23.334Z,8.40
2018-11-14T01:42:56.334Z,8.40
2018-11-14T01:45:25.593Z,8.30
2018-11-14T01:47:54.739Z,8.30
2018-11-14T01:50:24.045Z,8.30
2018-11-14T01:52:53.221Z,8.30
2018-11-14T01:55:22.435Z,8.40
2018-11-14T01:57:52.070Z,8.40
2018-11-14T02:00:23.288Z,8.50
2018-11-14T02:02:52.695Z,8.50
2018-11-14T02:05:21.911Z,8.40
2018-11-14T02:07:51.061Z,8.50
2018-11-14T02:10:21.061Z,8.40
2018-11-14T02:12:50.279Z,8.40
2018-11-14T02:15:20.767Z,8.40
2018-11-14T02:17:50.165Z,8.40
2018-11-14T02:20:19.303Z,8.40
2018-11-14T02:22:48.541Z,8.50
2018-11-14T02:25:18.966Z,8.40
2018-11-14T02:27:48.130Z,8.40
2018-11-14T02:30:19.593Z,8.40
2018-11-14T02:32:48.741Z,8.30
2018-11-14T02:35:17.885Z,8.30
2018-11-14T02:37:47.829Z,8.30
2018-11-14T02:40:17.960Z,8.30
2018-11-14T02:42:47.303Z,8.20
2018-11-14T02:45:16.789Z,8.20
2018-11-14T02:47:46.479Z,8.30
2018-11-14T02:50:16.753Z,8.30
2018-11-14T02:52:46.500Z,8.30
2018-11-14T02:55:16.651Z,8.30
2018-11-14T02:57:46.349Z,8.30
2018-11-14T03:00:18.375Z,8.30
2018-11-14T03:02:47.531Z,8.30
2018-11-14T03:05:16.735Z,8.30
2018-11-14T03:07:45.975Z,8.30
2018-11-14T03:10:17.540Z,8.30
2018-11-14T03:12:47.458Z,8.30
2018-11-14T03:15:20.691Z,8.30
2018-11-14T03:17:50.093Z,8.20
2018-11-14T03:20:20.376Z,8.20
2018-11-14T03:22:50.589Z,8.20
2018-11-14T03:25:19.981Z,8.20
2018-11-14T03:27:49.221Z,8.20
2018-11-14T03:30:18.863Z,8.10
2018-11-14T03:32:48.181Z,8.20
2018-11-14T03:35:17.335Z,8.20
2018-11-14T03:37:46.457Z,8.10
2018-11-14T03:40:17.133Z,8.10
2018-11-14T03:42:46.509Z,8.10
2018-11-14T03:45:16.196Z,8.00
2018-11-14T03:47:45.609Z,8.00
2018-11-14T03:50:14.874Z,7.90
2018-11-14T03:52:44.078Z,8.00
2018-11-14T03:55:13.785Z,8.00
2018-11-14T03:57:43.031Z,8.00
2018-11-14T04:00:15.133Z,7.90
2018-11-14T04:02:45.696Z,8.00
2018-11-14T04:05:14.909Z,8.00
2018-11-14T04:07:44.311Z,8.00
2018-11-14T04:10:14.197Z,8.00
2018-11-14T04:12:43.615Z,7.90
2018-11-14T04:15:14.416Z,7.90
2018-11-14T04:17:44.289Z,7.90
2018-11-14T04:20:14.985Z,7.90
2018-11-14T04:22:44.467Z,8.00
2018-11-14T04:25:15.445Z,7.90
2018-11-14T04:27:45.689Z,7.90
2018-11-14T04:30:17.834Z,7.90
2018-11-14T04:32:47.201Z,7.90
2018-11-14T04:35:17.183Z,7.90
2018-11-14T04:37:46.406Z,7.90
2018-11-14T04:40:19.220Z,7.80
2018-11-14T04:42:48.479Z,7.90
2018-11-14T04:45:19.297Z,7.90
2018-11-14T04:47:48.775Z,7.90
2018-11-14T04:50:20.112Z,7.90
2018-11-14T04:52:50.061Z,7.90
2018-11-14T04:55:20.893Z,7.90
2018-11-14T04:57:50.473Z,8.00
2018-11-14T05:00:20.953Z,7.90
2018-11-14T05:02:50.470Z,7.90
2018-11-14T05:05:20.814Z,7.90
2018-11-14T05:07:50.716Z,7.90
2018-11-14T05:10:21.607Z,7.90
2018-11-14T05:12:51.344Z,7.90
2018-11-14T05:15:22.185Z,7.90
2018-11-14T05:17:52.218Z,7.80
2018-11-14T05:20:21.821Z,7.80
2018-11-14T05:22:51.337Z,7.90
2018-11-14T05:25:21.170Z,7.90
2018-11-14T05:27:50.256Z,7.80
2018-11-14T05:30:21.623Z,7.80
2018-11-14T05:32:51.298Z,7.90
2018-11-14T05:35:20.429Z,7.80
2018-11-14T05:37:49.922Z,7.80
2018-11-14T05:40:20.561Z,7.80
2018-11-14T05:42:50.287Z,7.90
2018-11-14T05:45:22.101Z,7.90
2018-11-14T05:47:51.180Z,7.90
2018-11-14T05:50:21.291Z,7.90
2018-11-14T05:52:50.767Z,7.90
2018-11-14T05:55:19.937Z,7.90
2018-11-14T05:57:49.077Z,7.90
2018-11-14T06:00:25.127Z,7.90
2018-11-14T06:02:54.241Z,7.90
2018-11-14T06:05:23.401Z,7.90
2018-11-14T06:07:52.736Z,7.80
2018-11-14T06:10:21.834Z,7.70
2018-11-14T06:12:50.962Z,7.70
2018-11-14T06:15:21.129Z,7.80
2018-11-14T06:17:51.207Z,7.90
2018-11-14T06:20:21.467Z,7.90
2018-11-14T06:22:51.565Z,7.90
2018-11-14T06:25:24.233Z,7.80
2018-11-14T06:27:54.809Z,7.80
2018-11-14T06:30:24.274Z,7.80
2018-11-14T06:32:54.103Z,7.80
2018-11-14T06:35:23.719Z,7.70
2018-11-14T06:37:53.287Z,7.60
2018-11-14T06:40:22.463Z,7.80
2018-11-14T06:42:51.773Z,7.80
2018-11-14T06:45:22.281Z,7.70
2018-11-14T06:47:52.889Z,7.70
2018-11-14T06:50:21.983Z,7.70
2018-11-14T06:52:52.557Z,7.80
2018-11-14T06:55:22.053Z,7.70
2018-11-14T06:57:51.200Z,7.80
2018-11-14T07:00:24.210Z,7.80
2018-11-14T07:02:53.989Z,7.80
2018-11-14T07:05:23.145Z,7.80
2018-11-14T07:07:53.652Z,7.70
2018-11-14T07:10:24.197Z,7.70
2018-11-14T07:12:53.361Z,7.70
2018-11-14T07:15:24.090Z,7.70
2018-11-14T07:17:53.365Z,7.60
2018-11-14T07:20:31.153Z,7.70
2018-11-14T07:23:00.274Z,7.70
2018-11-14T07:25:29.420Z,7.80
2018-11-14T07:27:58.897Z,7.70
2018-11-14T07:30:29.153Z,7.70
2018-11-14T07:33:00.237Z,7.70
2018-11-14T07:35:29.299Z,7.70
2018-11-14T07:38:44.305Z,7.70
2018-11-14T07:41:14.669Z,7.70
2018-11-14T07:43:44.281Z,7.60
2018-11-14T07:46:14.535Z,7.60
2018-11-14T07:48:44.435Z,7.70
2018-11-14T07:51:13.436Z,7.70
2018-11-14T07:53:42.640Z,7.60
2018-11-14T07:56:11.836Z,7.70
2018-11-14T07:58:40.904Z,7.70
2018-11-14T08:01:10.127Z,7.90
2018-11-14T08:03:39.186Z,7.90
2018-11-14T08:06:08.333Z,7.90
2018-11-14T08:08:37.749Z,8.00
2018-11-14T08:11:07.612Z,7.90
2018-11-14T08:13:38.038Z,8.00
2018-11-14T08:16:07.186Z,8.00
2018-11-14T08:18:36.250Z,8.00
2018-11-14T08:21:06.108Z,8.10
2018-11-14T08:23:35.238Z,7.90
2018-11-14T08:26:04.334Z,7.90
2018-11-14T08:28:33.679Z,7.90
2018-11-14T08:31:02.934Z,7.90
2018-11-14T08:33:31.998Z,8.10
2018-11-14T08:36:01.276Z,8.10
2018-11-14T08:38:30.348Z,8.10
2018-11-14T08:40:59.444Z,8.20
2018-11-14T08:43:28.873Z,8.30
2018-11-14T08:45:57.951Z,8.30
2018-11-14T08:48:27.054Z,8.30
2018-11-14T08:50:56.234Z,8.30
2018-11-14T08:53:25.298Z,8.20
2018-11-14T08:55:54.338Z,8.10
2018-11-14T08:58:23.510Z,8.00
2018-11-14T09:00:52.594Z,8.10
2018-11-14T09:03:21.652Z,8.30
2018-11-14T09:05:51.025Z,8.40
2018-11-14T09:08:20.099Z,8.40
2018-11-14T09:10:49.227Z,8.40
2018-11-14T09:13:18.630Z,8.60
2018-11-14T09:15:47.704Z,8.60
2018-11-14T09:18:16.847Z,8.50
2018-11-14T09:20:46.094Z,8.60
2018-11-14T09:23:15.230Z,8.60
2018-11-14T09:25:44.321Z,8.60
2018-11-14T09:28:13.820Z,8.60
2018-11-14T09:30:42.896Z,8.60
2018-11-14T09:33:12.007Z,8.70
2018-11-14T09:35:41.146Z,8.60
2018-11-14T09:38:10.250Z,8.70
2018-11-14T09:40:39.517Z,8.80
2018-11-14T09:43:08.999Z,8.80
2018-11-14T09:45:38.065Z,8.80
2018-11-14T09:48:07.184Z,8.80
2018-11-14T09:50:36.580Z,8.70
2018-11-14T09:53:06.346Z,8.80
2018-11-14T09:55:35.418Z,8.80
2018-11-14T09:58:04.795Z,8.90
2018-11-14T10:00:34.733Z,8.90
2018-11-14T10:03:11.798Z,8.80
2018-11-14T10:05:40.868Z,8.90
2018-11-14T10:08:10.099Z,9.00
2018-11-14T10:10:39.427Z,9.00
2018-11-14T10:13:08.507Z,9.20
2018-11-14T10:15:37.687Z,9.20
2018-11-14T10:18:07.179Z,9.10
2018-11-14T10:20:36.247Z,9.30
2018-11-14T10:23:05.821Z,9.20
2018-11-14T10:25:35.388Z,9.30
2018-11-14T10:28:04.626Z,9.50
2018-11-14T10:30:33.646Z,9.40
2018-11-14T10:33:02.988Z,9.30
2018-11-14T10:35:32.045Z,9.40
2018-11-14T10:38:01.163Z,9.50
2018-11-14T10:40:30.760Z,9.60
2018-11-14T10:42:59.846Z,9.60
2018-11-14T10:45:28.921Z,9.60
2018-11-14T10:47:58.176Z,9.70
2018-11-14T10:50:27.819Z,9.80
2018-11-14T10:52:56.949Z,9.80
2018-11-14T10:55:26.557Z,9.80
2018-11-14T10:57:55.591Z,9.90
2018-11-14T11:00:31.417Z,9.90
2018-11-14T11:03:06.897Z,9.90
2018-11-14T11:05:44.054Z,9.80
2018-11-14T11:08:19.376Z,9.80
2018-11-14T11:10:53.813Z,9.90
2018-11-14T11:13:28.135Z,10.00
2018-11-14T11:16:02.876Z,10.00
2018-11-14T11:18:34.008Z,9.90
2018-11-14T11:21:03.420Z,10.00
2018-11-14T11:23:32.591Z,10.00
2018-11-14T11:26:01.616Z,10.00
2018-11-14T11:28:30.844Z,10.10
2018-11-14T11:30:59.911Z,10.00
2018-11-14T11:33:29.041Z,10.10
2018-11-14T11:35:58.240Z,10.10
2018-11-14T11:38:27.301Z,10.00
2018-11-14T11:40:56.350Z,9.70
2018-11-14T11:43:25.956Z,9.60
2018-11-14T11:45:55.115Z,9.60
2018-11-14T11:48:24.193Z,9.70
2018-11-14T11:50:53.514Z,9.80
2018-11-14T11:53:22.524Z,9.80
2018-11-14T11:55:51.569Z,9.90
2018-11-14T11:58:20.755Z,9.50
2018-11-14T12:00:49.944Z,9.60
2018-11-14T12:03:18.920Z,9.50
2018-11-14T12:05:48.443Z,9.50
2018-11-14T12:08:17.433Z,9.50
2018-11-14T12:10:46.580Z,9.60
2018-11-14T12:13:15.890Z,9.70
2018-11-14T12:15:44.969Z,9.70
2018-11-14T12:18:14.081Z,9.70
2018-11-14T12:20:43.616Z,9.70
2018-11-14T12:23:12.685Z,9.70
2018-11-14T12:25:41.761Z,9.70
2018-11-14T12:28:11.321Z,9.80
2018-11-14T12:30:40.614Z,9.80
2018-11-14T12:33:09.517Z,9.80
2018-11-14T12:35:38.941Z,10.00
2018-11-14T12:38:07.969Z,10.00
2018-11-14T12:40:37.114Z,10.00
2018-11-14T12:43:07.121Z,10.10
2018-11-14T12:45:36.215Z,10.10
2018-11-14T12:48:05.909Z,10.10
2018-11-14T12:50:35.337Z,10.10
2018-11-14T12:53:04.520Z,10.10
2018-11-14T12:55:33.605Z,10.10
2018-11-14T12:58:02.925Z,10.00
2018-11-14T13:00:32.016Z,9.90
2018-11-14T13:03:01.121Z,9.80
2018-11-14T13:05:30.517Z,9.80
2018-11-14T13:07:59.600Z,9.90
2018-11-14T13:10:28.786Z,9.90
2018-11-14T13:12:58.109Z,9.80
2018-11-14T13:15:27.191Z,9.80
2018-11-14T13:17:56.245Z,9.80
2018-11-14T13:20:25.722Z,9.80
2018-11-14T13:22:54.805Z,9.80
2018-11-14T13:25:23.887Z,9.90
2018-11-14T13:27:53.317Z,9.90
2018-11-14T13:30:23.755Z,9.90
2018-11-14T13:32:53.504Z,9.90
2018-11-14T13:35:23.718Z,9.90
2018-11-14T13:37:52.965Z,9.80
2018-11-14T13:40:22.041Z,9.80
2018-11-14T13:42:51.863Z,9.80
2018-11-14T13:45:20.929Z,9.90
2018-11-14T13:47:50.021Z,10.00
2018-11-14T13:50:21.413Z,10.00
2018-11-14T13:52:50.485Z,10.00
2018-11-14T13:55:20.770Z,9.90
2018-11-14T13:57:50.980Z,10.00
2018-11-14T14:00:21.316Z,10.00
2018-11-14T14:02:51.543Z,10.00
2018-11-14T14:05:21.971Z,10.00
2018-11-14T14:07:51.068Z,9.90
2018-11-14T14:10:20.434Z,10.00
2018-11-14T14:12:51.145Z,10.00
2018-11-14T14:15:24.409Z,9.90
2018-11-14T14:17:53.659Z,10.00
2018-11-14T14:20:23.286Z,9.90
2018-11-14T14:22:52.383Z,9.90
2018-11-14T14:25:22.869Z,9.90
2018-11-14T14:27:51.938Z,10.00
2018-11-14T14:30:22.344Z,9.90
2018-11-14T14:32:51.695Z,9.90
2018-11-14T14:35:21.895Z,9.90
2018-11-14T14:37:50.994Z,9.90
2018-11-14T14:40:21.734Z,10.00
2018-11-14T14:42:51.089Z,9.90
2018-11-14T14:45:22.795Z,9.80
2018-11-14T14:47:51.873Z,9.80
2018-11-14T14:50:21.242Z,9.80
2018-11-14T14:52:50.560Z,9.80
2018-11-14T14:55:22.614Z,9.70
2018-11-14T14:57:52.071Z,9.70
2018-11-14T15:00:25.416Z,9.70
2018-11-14T15:02:54.971Z,9.60
2018-11-14T15:05:24.069Z,9.60
2018-11-14T15:07:53.197Z,9.60
2018-11-14T15:10:23.960Z,9.60
2018-11-14T15:12:53.127Z,9.60
2018-11-14T15:15:22.289Z,9.60
2018-11-14T15:17:51.686Z,9.60
2018-11-14T15:20:22.162Z,9.50
2018-11-14T15:22:51.350Z,9.50
2018-11-14T15:25:22.037Z,9.50
2018-11-14T15:27:51.625Z,9.40
2018-11-14T15:30:26.796Z,9.40
2018-11-14T15:32:56.125Z,9.40
2018-11-14T15:35:25.340Z,9.30
2018-11-14T15:37:54.705Z,9.40
2018-11-14T15:40:25.240Z,9.40
2018-11-14T15:42:54.460Z,9.30
2018-11-14T15:45:26.000Z,9.30
2018-11-14T15:47:55.077Z,9.30
2018-11-14T15:50:25.584Z,9.30
2018-11-14T15:52:55.751Z,9.20
2018-11-14T15:55:25.003Z,9.10
2018-11-14T15:57:54.284Z,9.10
2018-11-14T16:00:27.473Z,9.10
2018-11-14T16:02:56.594Z,9.10
2018-11-14T16:05:26.754Z,9.20
2018-11-14T16:07:57.347Z,9.10
2018-11-14T16:10:27.306Z,9.10
2018-11-14T16:12:56.412Z,9.00
2018-11-14T16:15:28.001Z,9.10
2018-11-14T16:17:57.141Z,9.10
2018-11-14T16:20:26.591Z,9.10
2018-11-14T16:22:55.901Z,8.90
2018-11-14T16:25:25.797Z,8.80
2018-11-14T16:27:56.210Z,8.80
2018-11-14T16:30:29.561Z,8.80
2018-11-14T16:32:59.825Z,8.90
2018-11-14T16:35:28.968Z,8.90
2018-11-14T16:37:58.525Z,8.80
2018-11-14T16:40:28.909Z,8.70
2018-11-14T16:42:59.218Z,8.60
2018-11-14T16:45:28.335Z,8.70
2018-11-14T16:47:57.427Z,8.70
2018-11-14T16:50:26.801Z,8.70
2018-11-14T16:52:55.885Z,8.70
2018-11-14T16:55:25.009Z,8.70
2018-11-14T16:57:55.634Z,8.70
2018-11-14T17:00:26.122Z,8.70
2018-11-14T17:02:56.353Z,8.70
2018-11-14T17:05:26.703Z,8.70
2018-11-14T17:07:56.600Z,8.50
2018-11-14T17:10:26.097Z,8.50
2018-11-14T17:12:56.840Z,8.50
2018-11-14T17:15:27.636Z,8.50
2018-11-14T17:17:56.824Z,8.50
2018-11-14T17:20:26.036Z,8.50
2018-11-14T17:22:56.797Z,8.40
2018-11-14T17:25:25.997Z,8.50
2018-11-14T17:27:55.246Z,8.50
2018-11-14T17:30:25.779Z,8.50
2018-11-14T17:32:55.384Z,8.50
2018-11-14T17:35:24.630Z,8.50
2018-11-14T17:37:54.023Z,8.50
2018-11-14T17:40:24.959Z,8.50
2018-11-14T17:42:54.521Z,8.50
2018-11-14T17:45:25.741Z,8.60
2018-11-14T17:47:55.478Z,8.60
2018-11-14T17:50:26.508Z,8.60
2018-11-14T17:52:56.409Z,8.60
2018-11-14T17:55:26.329Z,8.60
2018-11-14T17:57:55.748Z,8.60
2018-11-14T18:00:26.287Z,8.60
2018-11-14T18:02:55.582Z,8.50
2018-11-14T18:05:26.092Z,8.60
2018-11-14T18:07:55.681Z,8.50
2018-11-14T18:10:26.043Z,8.60
2018-11-14T18:12:56.353Z,8.60
2018-11-14T18:15:25.469Z,8.50
2018-11-14T18:17:55.203Z,8.60
2018-11-14T18:20:25.759Z,8.60
2018-11-14T18:22:54.990Z,8.60
2018-11-14T18:25:24.162Z,8.60
2018-11-14T18:27:53.625Z,8.60
2018-11-14T18:30:25.105Z,8.50
2018-11-14T18:32:55.115Z,8.60
2018-11-14T18:35:24.876Z,8.60
2018-11-14T18:37:54.814Z,8.50
2018-11-14T18:40:25.383Z,8.40
2018-11-14T18:42:54.525Z,8.50
2018-11-14T18:45:29.992Z,8.50
2018-11-14T18:48:00.024Z,8.50
2018-11-14T18:50:29.399Z,8.50
2018-11-14T18:52:58.588Z,8.50
2018-11-14T18:55:29.007Z,8.50
2018-11-14T18:57:58.847Z,8.50
2018-11-14T19:00:29.169Z,8.40
2018-11-14T19:02:58.605Z,8.40
2018-11-14T19:05:27.757Z,8.40
2018-11-14T19:07:57.333Z,8.40
2018-11-14T19:10:27.904Z,8.50
2018-11-14T19:12:57.060Z,8.50
2018-11-14T19:15:27.706Z,8.50
2018-11-14T19:17:56.804Z,8.50
2018-11-14T19:20:27.432Z,8.50
2018-11-14T19:22:57.411Z,8.50
2018-11-14T19:25:28.972Z,8.50
2018-11-14T19:27:58.347Z,8.60
2018-11-14T19:30:28.655Z,8.60
2018-11-14T19:32:58.424Z,8.50
2018-11-14T19:35:27.714Z,8.50
2018-11-14T19:37:57.281Z,8.40
2018-11-14T19:40:27.724Z,8.40
2018-11-14T19:42:58.957Z,8.40
2018-11-14T19:45:30.573Z,8.40
2018-11-14T19:47:59.693Z,8.40
2018-11-14T19:50:29.024Z,8.40
2018-11-14T19:52:58.231Z,8.40
2018-11-14T19:55:28.103Z,8.40
2018-11-14T19:57:58.413Z,8.40
2018-11-14T20:00:37.593Z,8.40
2018-11-14T20:03:07.141Z,8.40
2018-11-14T20:05:36.430Z,8.40
2018-11-14T20:08:05.931Z,8.40
2018-11-14T20:10:35.404Z,8.40
2018-11-14T20:13:04.491Z,8.30
2018-11-14T20:15:35.123Z,8.40
2018-11-14T20:18:04.752Z,8.30
2018-11-14T20:20:35.255Z,8.30
2018-11-14T20:23:05.752Z,8.30
2018-11-14T20:25:35.190Z,8.40
2018-11-14T20:28:04.316Z,8.40
2018-11-14T20:30:36.035Z,8.40
2018-11-14T20:33:10.472Z,8.30
2018-11-14T20:35:39.860Z,8.30
2018-11-14T20:38:09.032Z,8.40
2018-11-14T20:40:40.358Z,8.40
2018-11-14T20:43:09.663Z,8.40
2018-11-14T20:45:38.930Z,8.40
2018-11-14T20:48:08.018Z,8.30
2018-11-14T20:50:37.311Z,8.40
2018-11-14T20:53:06.491Z,8.30
2018-11-14T20:55:36.218Z,8.30
2018-11-14T20:58:05.858Z,8.20
2018-11-14T21:00:36.326Z,8.20
2018-11-14T21:03:06.435Z,8.10
2018-11-14T21:05:35.659Z,8.20
2018-11-14T21:08:05.138Z,8.20
2018-11-14T21:10:35.200Z,8.10
2018-11-14T21:13:04.917Z,8.10
2018-11-14T21:15:36.838Z,8.10
2018-11-14T21:18:06.268Z,8.10
2018-11-14T21:20:35.386Z,8.10
2018-11-14T21:23:04.912Z,8.10
2018-11-14T21:25:33.901Z,8.10
2018-11-14T21:28:02.985Z,8.10
2018-11-14T21:30:32.422Z,8.10
2018-11-14T21:33:01.518Z,8.00
2018-11-14T21:35:32.198Z,8.00
2018-11-14T21:38:02.996Z,7.90
2018-11-14T21:40:32.090Z,7.90
2018-11-14T21:43:01.227Z,7.90
2018-11-14T21:45:31.130Z,7.80
2018-11-14T21:48:05.514Z,7.80
2018-11-14T21:50:34.787Z,7.80
2018-11-14T21:53:03.959Z,7.70
2018-11-14T21:55:33.046Z,7.80
2018-11-14T21:58:02.237Z,7.70
2018-11-14T22:00:31.366Z,7.70
2018-11-14T22:03:00.618Z,7.80
2018-11-14T22:05:29.906Z,7.80
2018-11-14T22:07:59.018Z,7.70
2018-11-14T22:10:28.171Z,7.70
2018-11-14T22:12:57.853Z,7.70
2018-11-14T22:15:27.920Z,7.70
2018-11-14T22:17:57.011Z,7.70
2018-11-14T22:20:27.503Z,7.60
2018-11-14T22:22:56.616Z,7.60
2018-11-14T22:25:26.758Z,7.70
2018-11-14T22:27:56.369Z,7.60
2018-11-14T22:30:28.034Z,7.70
2018-11-14T22:32:57.610Z,7.60
2018-11-14T22:35:27.713Z,7.60
2018-11-14T22:37:56.889Z,7.60
2018-11-14T22:40:27.732Z,7.60
2018-11-14T22:42:56.799Z,7.60
2018-11-14T22:45:27.339Z,7.50
2018-11-14T22:47:56.707Z,7.50
2018-11-14T22:50:26.308Z,7.40
2018-11-14T22:52:55.412Z,7.40
2018-11-14T22:55:25.596Z,7.30
2018-11-14T22:57:55.009Z,7.30
2018-11-14T23:00:34.736Z,7.20
2018-11-14T23:03:03.933Z,7.20
2018-11-14T23:05:33.110Z,7.20
2018-11-14T23:08:02.341Z,7.30
2018-11-14T23:10:31.528Z,7.40
2018-11-14T23:13:00.700Z,7.40
2018-11-14T23:15:30.093Z,7.50
2018-11-14T23:17:59.150Z,7.40
2018-11-14T23:20:28.230Z,7.50
2018-11-14T23:22:57.554Z,7.50
2018-11-14T23:25:26.600Z,7.50
2018-11-14T23:27:56.348Z,7.50
2018-11-14T23:30:27.033Z,7.50
2018-11-14T23:32:56.884Z,7.50
2018-11-14T23:35:27.206Z,7.40
2018-11-14T23:37:58.773Z,7.30
2018-11-14T23:40:28.200Z,7.30
2018-11-14T23:42:57.304Z,7.40
2018-11-14T23:45:27.203Z,7.30
2018-11-14T23:47:56.283Z,7.30
2018-11-14T23:50:26.601Z,7.40
2018-11-14T23:52:56.950Z,7.40
2018-11-14T23:55:26.771Z,7.50
2018-11-14T23:57:55.954Z,7.50
